Time;durP1;ratioP1;P1;durP2;ratioP2;P2;SDS_P1;SDS_P2;PMS_P1;PMS_P2;Temp;Humidity;BMP_temperature;BMP_pressure;BME280_temperature;BME280_humidity;BME280_pressure;Samples;Min_cycle;Max_cycle;Signal;HPM_P1;HPM_P2
2021/12/23 00:01:44;;;;;;;41.47;12.87;;;1.20;99.90;;;;;;5033403;28;20309;-70
2021/12/23 00:04:12;;;;;;;41.37;12.23;;;1.20;99.90;;;;;;5026329;28;20206;-71
2021/12/23 00:06:41;;;;;;;38.93;12.87;;;1.10;99.90;;;;;;5007081;28;20342;-70
2021/12/23 00:09:08;;;;;;;30.80;8.67;;;1.10;99.90;;;;;;5036866;28;20209;-71
2021/12/23 00:11:35;;;;;;;40.57;12.77;;;1.10;99.90;;;;;;5037617;28;20288;-71
2021/12/23 00:14:04;;;;;;;32.33;9.23;;;1.20;99.90;;;;;;5050659;28;24042;-70
2021/12/23 00:16:43;;;;;;;47.33;12.97;;;1.30;99.90;;;;;;5043407;28;20213;-70
2021/12/23 00:19:21;;;;;;;38.00;11.07;;;1.20;99.90;;;;;;5034316;28;20213;-71
2021/12/23 00:24:35;;;;;;;45.83;12.87;;;1.40;99.90;;;;;;5010542;28;20213;-70
2021/12/23 00:27:03;;;;;;;40.33;11.77;;;1.40;99.90;;;;;;5037357;28;20268;-70
2021/12/23 00:29:31;;;;;;;40.90;11.27;;;1.40;99.90;;;;;;5011520;28;20694;-71
2021/12/23 00:31:59;;;;;;;39.50;9.80;;;1.40;99.90;;;;;;5026113;28;20217;-71
2021/12/23 00:34:26;;;;;;;33.93;10.37;;;1.50;99.90;;;;;;5043958;28;20206;-71
2021/12/23 00:36:57;;;;;;;33.30;8.43;;;1.60;99.90;;;;;;5030488;28;20225;-71
2021/12/23 00:39:25;;;;;;;39.77;11.87;;;1.60;99.90;;;;;;5025739;28;20207;-71
2021/12/23 00:41:54;;;;;;;33.40;10.57;;;1.70;99.90;;;;;;5030487;28;20282;-71
2021/12/23 00:44:21;;;;;;;42.60;11.53;;;1.70;99.90;;;;;;5032958;28;20294;-69
2021/12/23 00:46:48;;;;;;;33.47;11.20;;;1.70;99.90;;;;;;5036793;28;20604;-69
2021/12/23 00:49:15;;;;;;;36.73;11.57;;;1.80;99.90;;;;;;5029758;28;20505;-71
2021/12/23 00:51:42;;;;;;;42.67;12.73;;;1.80;99.90;;;;;;5040219;28;20668;-68
2021/12/23 00:54:11;;;;;;;40.03;11.33;;;1.80;99.90;;;;;;5030507;28;20213;-68
2021/12/23 00:56:38;;;;;;;42.17;12.43;;;1.80;99.90;;;;;;5033557;28;20213;-71
2021/12/23 00:59:09;;;;;;;38.10;11.57;;;1.80;99.90;;;;;;5036257;28;20214;-71
2021/12/23 01:01:36;;;;;;;38.00;11.30;;;1.90;99.90;;;;;;5042193;28;20229;-71
2021/12/23 01:04:03;;;;;;;46.73;13.17;;;1.80;99.90;;;;;;5036803;28;20845;-71
2021/12/23 01:06:30;;;;;;;45.87;13.13;;;1.80;99.90;;;;;;5025804;28;20219;-68
2021/12/23 01:08:56;;;;;;;41.80;13.23;;;1.80;99.90;;;;;;5025461;28;20215;-69
2021/12/23 01:11:25;;;;;;;45.63;12.93;;;1.80;99.90;;;;;;5020208;28;20209;-69
2021/12/23 01:14:00;;;;;;;36.37;11.93;;;1.80;99.90;;;;;;5015588;28;20217;-69
2021/12/23 01:16:47;;;;;;;38.60;10.40;;;1.70;99.90;;;;;;5013155;28;20208;-69
2021/12/23 01:19:14;;;;;;;37.50;9.97;;;1.70;99.90;;;;;;5027449;28;20218;-69
2021/12/23 01:21:41;;;;;;;37.37;11.63;;;1.70;99.90;;;;;;5021218;28;20594;-69
2021/12/23 01:24:09;;;;;;;40.10;11.13;;;1.60;99.90;;;;;;5025254;28;20214;-69
2021/12/23 01:26:38;;;;;;;39.27;11.77;;;1.60;99.90;;;;;;5028584;28;20214;-68
2021/12/23 01:29:06;;;;;;;40.30;10.87;;;1.60;99.90;;;;;;5022053;28;20974;-69
2021/12/23 01:31:34;;;;;;;39.10;11.40;;;1.70;99.90;;;;;;5031783;28;20206;-69
2021/12/23 01:34:02;;;;;;;37.30;11.60;;;1.70;99.90;;;;;;5016206;28;20217;-69
2021/12/23 01:36:29;;;;;;;42.17;11.20;;;1.70;99.90;;;;;;5034404;28;20206;-69
2021/12/23 01:38:56;;;;;;;47.97;13.90;;;1.70;99.90;;;;;;5019987;28;20512;-69
2021/12/23 01:41:25;;;;;;;43.17;12.27;;;1.70;99.90;;;;;;5030065;28;20618;-69
2021/12/23 01:43:54;;;;;;;40.77;10.33;;;1.70;99.90;;;;;;5029604;28;20631;-69
2021/12/23 01:46:22;;;;;;;33.60;9.20;;;1.70;99.90;;;;;;5025137;28;20597;-69
2021/12/23 01:48:49;;;;;;;40.80;11.87;;;1.80;99.90;;;;;;5034132;28;20244;-69
2021/12/23 01:51:16;;;;;;;44.73;13.17;;;1.70;99.90;;;;;;5030531;28;20217;-69
2021/12/23 01:53:44;;;;;;;41.57;12.10;;;1.70;99.90;;;;;;5027599;28;20576;-69
2021/12/23 01:56:11;;;;;;;46.03;13.77;;;1.70;99.90;;;;;;5032635;28;20257;-69
2021/12/23 01:58:38;;;;;;;43.77;9.57;;;1.60;99.90;;;;;;5018578;28;20345;-69
2021/12/23 02:01:08;;;;;;;45.57;13.83;;;1.60;99.90;;;;;;5040145;28;20229;-69
2021/12/23 02:03:36;;;;;;;44.50;12.53;;;1.60;99.90;;;;;;5028587;28;20207;-69
2021/12/23 02:06:03;;;;;;;45.93;13.87;;;1.50;99.90;;;;;;5028310;28;20225;-69
2021/12/23 02:08:30;;;;;;;42.23;13.47;;;1.50;99.90;;;;;;5027218;28;20252;-69
2021/12/23 02:10:59;;;;;;;42.83;12.63;;;1.50;99.90;;;;;;5025762;28;20216;-69
2021/12/23 02:13:26;;;;;;;48.87;14.27;;;1.50;99.90;;;;;;5023095;28;20325;-69
2021/12/23 02:15:53;;;;;;;43.07;12.77;;;1.50;99.90;;;;;;5015903;28;20205;-69
2021/12/23 02:18:22;;;;;;;41.53;12.10;;;1.50;99.90;;;;;;5028835;28;20618;-69
2021/12/23 02:20:51;;;;;;;36.20;10.57;;;1.50;99.90;;;;;;5010022;28;20632;-69
2021/12/23 02:23:18;;;;;;;36.90;11.40;;;1.50;99.90;;;;;;5025317;28;20667;-69
2021/12/23 02:25:45;;;;;;;40.23;11.93;;;1.50;99.90;;;;;;5033446;28;20216;-69
2021/12/23 02:28:16;;;;;;;43.17;12.47;;;1.60;99.90;;;;;;5039066;28;20234;-69
2021/12/23 02:30:44;;;;;;;36.97;9.83;;;1.70;99.90;;;;;;5032147;28;20268;-69
2021/12/23 02:33:11;;;;;;;40.47;11.40;;;1.70;99.90;;;;;;5025997;28;20213;-69
2021/12/23 02:35:38;;;;;;;47.63;12.67;;;1.80;99.90;;;;;;5037023;28;20209;-69
2021/12/23 02:38:06;;;;;;;39.70;10.60;;;1.80;99.90;;;;;;5026676;28;20229;-69
2021/12/23 02:40:36;;;;;;;37.60;11.40;;;1.80;99.90;;;;;;5033529;28;20216;-69
2021/12/23 02:43:12;;;;;;;44.47;13.23;;;1.90;99.90;;;;;;5020956;28;20226;-69
2021/12/23 02:45:40;;;;;;;45.67;14.53;;;1.90;99.90;;;;;;5024699;28;20197;-69
2021/12/23 02:48:12;;;;;;;46.27;14.40;;;2.00;99.90;;;;;;5027438;28;20695;-69
2021/12/23 02:50:39;;;;;;;35.43;10.17;;;2.00;99.90;;;;;;5036522;28;20282;-69
2021/12/23 02:53:08;;;;;;;43.80;14.73;;;2.00;99.90;;;;;;5030824;28;20212;-69
2021/12/23 02:55:35;;;;;;;45.87;13.80;;;2.10;99.90;;;;;;5032534;28;20213;-69
2021/12/23 02:58:01;;;;;;;46.20;13.40;;;2.10;99.90;;;;;;5032826;28;20717;-69
2021/12/23 03:00:29;;;;;;;35.07;12.13;;;2.10;99.90;;;;;;5032455;28;20240;-69
2021/12/23 03:02:56;;;;;;;45.87;13.83;;;3.80;99.90;;;;;;5023581;28;20225;-69
2021/12/23 03:05:23;;;;;;;43.20;12.37;;;2.20;99.90;;;;;;5030673;28;20210;-69
2021/12/23 03:07:50;;;;;;;38.67;11.67;;;2.20;99.90;;;;;;5026208;28;20236;-69
2021/12/23 03:10:21;;;;;;;52.53;15.37;;;2.20;99.90;;;;;;5021207;28;20660;-69
2021/12/23 03:12:49;;;;;;;40.17;11.73;;;2.20;99.90;;;;;;5023873;28;20224;-70
2021/12/23 03:15:16;;;;;;;49.93;15.03;;;2.30;99.90;;;;;;5037515;28;20678;-69
2021/12/23 03:17:43;;;;;;;36.57;11.57;;;2.30;99.90;;;;;;5032927;28;20225;-69
2021/12/23 03:20:11;;;;;;;42.70;13.73;;;2.20;99.90;;;;;;5033683;28;20209;-69
2021/12/23 03:22:38;;;;;;;40.93;14.33;;;2.20;99.90;;;;;;5019245;28;20236;-70
2021/12/23 03:25:05;;;;;;;48.07;14.07;;;2.20;99.90;;;;;;5041840;28;20237;-69
2021/12/23 03:27:34;;;;;;;43.77;15.47;;;2.10;99.90;;;;;;5039108;28;20702;-69
2021/12/23 03:30:01;;;;;;;40.37;13.17;;;2.10;99.90;;;;;;5029605;28;20210;-69
2021/12/23 03:32:28;;;;;;;44.83;12.07;;;2.10;99.90;;;;;;5035219;28;20622;-69
2021/12/23 03:34:55;;;;;;;43.13;13.23;;;2.10;99.90;;;;;;5022117;28;20225;-69
2021/12/23 03:37:22;;;;;;;39.07;11.70;;;2.10;99.90;;;;;;5025083;28;20233;-69
2021/12/23 03:39:51;;;;;;;44.27;14.83;;;2.00;99.90;;;;;;5038150;28;20655;-69
2021/12/23 03:42:18;;;;;;;45.27;13.93;;;2.00;99.90;;;;;;5025534;28;20222;-69
2021/12/23 03:44:48;;;;;;;51.53;15.70;;;1.90;99.90;;;;;;5026558;28;20714;-69
2021/12/23 03:47:15;;;;;;;45.20;14.03;;;1.90;99.90;;;;;;5022071;28;20244;-68
2021/12/23 03:49:42;;;;;;;41.00;11.83;;;1.80;99.90;;;;;;5018865;28;20217;-69
2021/12/23 03:52:08;;;;;;;49.80;14.93;;;1.80;99.90;;;;;;5022580;28;21018;-70
2021/12/23 03:54:35;;;;;;;41.17;13.47;;;1.70;99.90;;;;;;5038249;28;20210;-70
2021/12/23 03:57:02;;;;;;;48.83;15.37;;;1.70;99.90;;;;;;5038080;28;20573;-69
2021/12/23 03:59:29;;;;;;;52.70;16.67;;;1.70;99.90;;;;;;5029372;28;20221;-68
2021/12/23 04:01:57;;;;;;;49.97;14.47;;;1.60;99.90;;;;;;5030818;28;20225;-68
2021/12/23 04:04:24;;;;;;;42.40;12.73;;;1.60;99.90;;;;;;5031384;28;20236;-68
2021/12/23 04:06:52;;;;;;;54.03;17.23;;;1.50;99.90;;;;;;5034370;28;20230;-68
2021/12/23 04:09:20;;;;;;;51.63;15.77;;;1.50;99.90;;;;;;5007010;28;20581;-68
2021/12/23 04:11:47;;;;;;;44.67;13.57;;;1.50;99.90;;;;;;5037146;28;20630;-68
2021/12/23 04:14:13;;;;;;;59.17;18.10;;;1.40;99.90;;;;;;5027001;28;20240;-68
2021/12/23 04:16:41;;;;;;;50.83;12.50;;;1.40;99.90;;;;;;5028010;28;20233;-68
2021/12/23 04:19:11;;;;;;;51.67;16.73;;;1.40;99.90;;;;;;5028108;28;20300;-69
2021/12/23 04:21:39;;;;;;;48.63;13.77;;;1.30;99.90;;;;;;5029993;28;20763;-69
2021/12/23 04:24:07;;;;;;;48.47;14.20;;;1.40;99.90;;;;;;5005249;28;20214;-69
2021/12/23 04:26:35;;;;;;;51.90;16.77;;;1.40;99.90;;;;;;4999952;28;20244;-69
2021/12/23 04:29:02;;;;;;;48.00;15.33;;;1.40;99.90;;;;;;5027503;28;20217;-69
2021/12/23 04:31:29;;;;;;;45.67;14.97;;;1.40;99.90;;;;;;5030008;28;20682;-69
2021/12/23 04:33:56;;;;;;;45.77;13.97;;;1.30;99.90;;;;;;5028383;28;20205;-68
2021/12/23 04:36:27;;;;;;;47.53;16.50;;;1.20;99.90;;;;;;5035322;28;20617;-69
2021/12/23 04:38:54;;;;;;;39.83;13.57;;;1.20;99.90;;;;;;5004474;28;20238;-69
2021/12/23 04:41:21;;;;;;;47.93;15.43;;;1.20;99.90;;;;;;5038673;28;20717;-68
2021/12/23 04:43:49;;;;;;;58.47;16.40;;;1.20;99.90;;;;;;5030531;28;20758;-69
2021/12/23 04:46:16;;;;;;;52.83;16.80;;;1.20;99.90;;;;;;5027727;28;20213;-69
2021/12/23 04:48:45;;;;;;;52.57;16.13;;;1.20;99.90;;;;;;5027648;28;20225;-69
2021/12/23 04:51:12;;;;;;;41.23;12.57;;;1.10;99.90;;;;;;5031961;28;20298;-69
2021/12/23 04:53:40;;;;;;;51.73;15.70;;;1.10;99.90;;;;;;5033457;28;20474;-69
2021/12/23 04:56:07;;;;;;;55.77;17.57;;;1.10;99.90;;;;;;5028526;28;20738;-70
2021/12/23 04:58:34;;;;;;;46.43;15.23;;;1.00;99.90;;;;;;5029286;28;20245;-69
2021/12/23 05:01:03;;;;;;;54.10;17.40;;;1.10;99.90;;;;;;5024043;28;20216;-69
2021/12/23 05:03:30;;;;;;;56.47;16.50;;;1.00;99.90;;;;;;5027382;28;20239;-69
2021/12/23 05:05:57;;;;;;;48.67;15.07;;;1.10;99.90;;;;;;5027201;28;20690;-70
2021/12/23 05:08:24;;;;;;;46.40;14.37;;;1.10;99.90;;;;;;5036448;28;20225;-70
2021/12/23 05:10:52;;;;;;;47.57;14.93;;;1.10;99.90;;;;;;5033374;28;20209;-69
2021/12/23 05:13:19;;;;;;;43.70;13.63;;;1.10;99.90;;;;;;5027406;28;20201;-69
2021/12/23 05:15:46;;;;;;;42.47;11.73;;;1.00;99.90;;;;;;5029276;28;20589;-69
2021/12/23 05:18:13;;;;;;;57.03;17.70;;;1.10;99.90;;;;;;5025548;28;20305;-70
2021/12/23 05:20:40;;;;;;;51.13;17.10;;;1.10;99.90;;;;;;5018525;28;20209;-69
2021/12/23 05:23:08;;;;;;;45.27;15.30;;;1.10;99.90;;;;;;5028470;28;20233;-69
2021/12/23 05:25:35;;;;;;;57.97;17.37;;;1.10;99.90;;;;;;5033247;28;20229;-69
2021/12/23 05:28:03;;;;;;;45.53;15.20;;;1.20;99.90;;;;;;5037312;28;20234;-70
2021/12/23 05:30:31;;;;;;;42.27;12.00;;;1.20;99.90;;;;;;5029086;28;20787;-70
2021/12/23 05:32:58;;;;;;;46.77;16.43;;;1.30;99.90;;;;;;5036546;28;20205;-69
2021/12/23 05:35:25;;;;;;;47.80;17.00;;;1.30;99.90;;;;;;5025597;28;20216;-70
2021/12/23 05:37:53;;;;;;;42.97;12.27;;;1.30;99.90;;;;;;5039537;28;20234;-69
2021/12/23 05:40:22;;;;;;;47.73;14.47;;;1.40;99.90;;;;;;5028501;28;20204;-69
2021/12/23 05:42:49;;;;;;;50.97;16.33;;;1.50;99.90;;;;;;5017139;28;20222;-69
2021/12/23 05:45:18;;;;;;;47.80;14.93;;;1.50;99.90;;;;;;5034788;28;20217;-69
2021/12/23 05:47:45;;;;;;;48.90;16.83;;;1.50;99.90;;;;;;5027170;28;20616;-69
2021/12/23 05:50:13;;;;;;;46.33;14.33;;;1.50;99.90;;;;;;5040338;28;20209;-69
2021/12/23 05:52:40;;;;;;;48.37;15.57;;;1.60;99.90;;;;;;5034758;28;20205;-69
2021/12/23 05:55:09;;;;;;;54.17;17.63;;;1.60;99.90;;;;;;5030586;28;20209;-69
2021/12/23 05:57:37;;;;;;;46.03;13.40;;;1.60;99.90;;;;;;5022939;28;20222;-69
2021/12/23 06:00:06;;;;;;;45.07;15.03;;;1.70;99.90;;;;;;5042188;28;20205;-70
2021/12/23 06:02:38;;;;;;;46.63;15.40;;;1.70;99.90;;;;;;5025245;28;20261;-70
2021/12/23 06:05:05;;;;;;;48.73;13.57;;;1.70;99.90;;;;;;5002707;28;20213;-69
2021/12/23 06:07:32;;;;;;;40.80;13.17;;;1.70;99.90;;;;;;5031079;28;20229;-70
2021/12/23 06:09:59;;;;;;;47.70;14.93;;;1.70;99.90;;;;;;5032226;28;20217;-70
2021/12/23 06:12:26;;;;;;;44.93;13.83;;;1.70;99.90;;;;;;5028905;28;20214;-69
2021/12/23 06:14:53;;;;;;;48.83;17.83;;;1.70;99.90;;;;;;5023466;28;20627;-69
2021/12/23 06:17:20;;;;;;;43.60;14.73;;;1.80;99.90;;;;;;5041754;28;20233;-69
2021/12/23 06:19:48;;;;;;;48.37;15.80;;;1.80;99.90;;;;;;5035823;28;20205;-69
2021/12/23 06:22:18;;;;;;;44.57;13.10;;;1.80;99.90;;;;;;5033936;28;20225;-70
2021/12/23 06:24:47;;;;;;;50.17;17.73;;;1.90;99.90;;;;;;5037472;28;20216;-71
2021/12/23 06:27:13;;;;;;;42.10;11.40;;;1.90;99.90;;;;;;5028921;28;20611;-71
2021/12/23 06:29:40;;;;;;;46.80;14.87;;;1.90;99.90;;;;;;5031908;28;20565;-71
2021/12/23 06:32:08;;;;;;;45.93;15.20;;;1.90;99.90;;;;;;5032606;28;20216;-69
2021/12/23 06:34:35;;;;;;;45.03;13.70;;;1.90;99.90;;;;;;5039441;28;20201;-69
2021/12/23 06:37:04;;;;;;;45.20;12.33;;;2.00;99.90;;;;;;5027409;28;20248;-70
2021/12/23 06:39:31;;;;;;;46.30;15.03;;;2.00;99.90;;;;;;5026392;28;20662;-69
2021/12/23 06:41:58;;;;;;;58.90;17.67;;;2.00;99.90;;;;;;5035948;28;20218;-70
2021/12/23 06:44:25;;;;;;;55.20;17.03;;;2.00;99.90;;;;;;5033097;28;20921;-69
2021/12/23 06:46:52;;;;;;;49.77;17.13;;;2.10;99.90;;;;;;5042184;28;20252;-70
2021/12/23 06:49:19;;;;;;;54.53;18.73;;;2.10;99.90;;;;;;5012508;28;20217;-70
2021/12/23 06:51:46;;;;;;;52.07;16.40;;;2.10;99.90;;;;;;5032738;28;20221;-70
2021/12/23 06:54:16;;;;;;;52.47;15.93;;;2.10;99.90;;;;;;5043696;28;20209;-70
2021/12/23 06:56:43;;;;;;;40.60;12.97;;;2.50;99.90;;;;;;5042495;28;20216;-70
2021/12/23 06:59:14;;;;;;;45.03;14.43;;;2.20;99.90;;;;;;5035555;28;20221;-70
2021/12/23 07:01:41;;;;;;;42.17;13.00;;;2.20;99.90;;;;;;5042007;28;20565;-70
2021/12/23 07:04:14;;;;;;;44.50;15.10;;;2.20;99.90;;;;;;5024504;28;20230;-70
2021/12/23 07:06:46;;;;;;;53.27;16.77;;;2.20;99.90;;;;;;5036421;28;20209;-70
2021/12/23 07:09:16;;;;;;;45.50;16.20;;;2.20;99.90;;;;;;5035105;28;20213;-70
2021/12/23 07:11:43;;;;;;;48.40;16.30;;;2.20;99.90;;;;;;5014313;28;20691;-70
2021/12/23 07:14:10;;;;;;;50.20;17.00;;;2.20;99.90;;;;;;5046962;28;20205;-70
2021/12/23 07:16:38;;;;;;;52.90;16.93;;;2.10;99.90;;;;;;5028836;28;20209;-70
2021/12/23 07:19:05;;;;;;;46.57;14.83;;;2.10;99.90;;;;;;5038796;28;20280;-70
2021/12/23 07:21:32;;;;;;;46.97;16.30;;;2.10;99.90;;;;;;5042378;28;20216;-70
2021/12/23 07:24:00;;;;;;;47.73;15.70;;;2.10;99.90;;;;;;5044513;28;20236;-68
2021/12/23 07:26:28;;;;;;;44.27;13.13;;;2.10;99.90;;;;;;5035893;28;20300;-69
2021/12/23 07:28:55;;;;;;;57.23;17.37;;;2.00;99.90;;;;;;5038116;28;20218;-69
2021/12/23 07:31:22;;;;;;;54.00;18.03;;;2.00;99.90;;;;;;5039169;28;20217;-70
2021/12/23 07:33:49;;;;;;;46.10;13.57;;;2.00;99.90;;;;;;5023701;28;20217;-70
2021/12/23 07:36:18;;;;;;;49.37;16.83;;;-0.30;99.90;;;;;;5030038;28;20214;-70
2021/12/23 07:38:45;;;;;;;45.37;14.90;;;2.00;99.90;;;;;;5012951;28;20234;-70
2021/12/23 07:41:12;;;;;;;49.33;14.27;;;2.10;99.90;;;;;;5030364;28;20589;-70
2021/12/23 07:43:55;;;;;;;48.27;16.57;;;4.20;99.90;;;;;;5035457;28;20303;-70
2021/12/23 07:46:23;;;;;;;47.63;16.63;;;2.10;99.90;;;;;;5033036;28;20692;-70
2021/12/23 07:48:50;;;;;;;44.33;15.97;;;2.20;99.90;;;;;;5040617;28;20221;-70
2021/12/23 07:51:18;;;;;;;54.83;18.17;;;2.20;99.90;;;;;;5041574;28;20700;-70
2021/12/23 07:53:45;;;;;;;42.47;11.40;;;2.20;99.90;;;;;;5036348;28;20221;-70
2021/12/23 07:56:12;;;;;;;41.93;13.73;;;2.30;99.90;;;;;;5016123;28;20221;-70
2021/12/23 07:58:40;;;;;;;51.20;16.20;;;2.30;99.90;;;;;;5035088;28;20236;-69
2021/12/23 08:01:07;;;;;;;50.57;16.60;;;2.20;99.90;;;;;;5039470;28;20224;-71
2021/12/23 08:03:34;;;;;;;46.13;14.20;;;2.30;99.90;;;;;;5034834;28;20729;-69
2021/12/23 08:06:01;;;;;;;48.23;16.33;;;2.30;99.90;;;;;;5007566;28;20217;-70
2021/12/23 08:08:28;;;;;;;43.80;13.97;;;2.30;99.90;;;;;;5030844;28;20456;-70
2021/12/23 08:10:54;;;;;;;48.60;16.77;;;2.30;99.90;;;;;;5027416;28;20206;-70
2021/12/23 08:13:21;;;;;;;51.17;16.60;;;2.30;99.90;;;;;;5035056;28;20226;-70
2021/12/23 08:15:50;;;;;;;50.30;16.47;;;2.30;99.90;;;;;;5019890;28;20692;-70
2021/12/23 08:18:17;;;;;;;48.07;14.03;;;2.30;99.90;;;;;;5041132;28;20225;-70
2021/12/23 08:20:44;;;;;;;43.83;14.37;;;2.40;99.90;;;;;;5033133;28;20217;-69
2021/12/23 08:23:11;;;;;;;53.30;16.47;;;2.40;99.90;;;;;;5028406;28;20727;-69
2021/12/23 08:25:38;;;;;;;49.90;15.83;;;2.40;99.90;;;;;;5035338;28;20217;-69
2021/12/23 08:28:05;;;;;;;49.50;15.90;;;2.50;99.90;;;;;;5036530;28;20233;-69
2021/12/23 08:30:34;;;;;;;47.57;16.03;;;2.50;99.90;;;;;;5035911;28;20205;-69
2021/12/23 08:33:02;;;;;;;46.93;15.77;;;2.60;99.90;;;;;;5034740;28;20207;-70
2021/12/23 08:35:29;;;;;;;44.23;15.17;;;2.70;99.90;;;;;;5021496;28;20609;-70
2021/12/23 08:37:56;;;;;;;52.07;17.43;;;2.80;99.90;;;;;;5031573;28;20232;-70
2021/12/23 08:40:25;;;;;;;52.20;17.67;;;2.80;99.90;;;;;;5033960;28;20205;-70
2021/12/23 08:42:53;;;;;;;43.57;13.27;;;2.90;99.90;;;;;;5034463;28;20579;-69
2021/12/23 08:45:21;;;;;;;52.50;17.27;;;2.90;99.90;;;;;;5036626;28;20201;-70
2021/12/23 08:47:48;;;;;;;52.03;16.97;;;2.90;99.90;;;;;;5030531;28;20645;-70
2021/12/23 08:50:17;;;;;;;54.87;16.53;;;3.00;99.90;;;;;;5033536;28;20725;-69
2021/12/23 08:52:44;;;;;;;46.50;14.07;;;3.00;99.90;;;;;;5012414;28;20213;-70
2021/12/23 08:55:12;;;;;;;54.73;16.57;;;3.10;99.90;;;;;;5038818;28;20235;-70
2021/12/23 08:57:40;;;;;;;52.47;16.73;;;3.10;99.90;;;;;;5030091;28;20724;-70
2021/12/23 09:00:11;;;;;;;48.30;17.13;;;3.10;99.90;;;;;;5035872;28;20331;-70
2021/12/23 09:02:38;;;;;;;49.97;17.43;;;3.20;99.90;;;;;;5041374;28;20220;-70
2021/12/23 09:05:07;;;;;;;55.23;18.30;;;3.30;99.90;;;;;;5031987;28;20241;-70
2021/12/23 09:07:35;;;;;;;47.40;16.77;;;3.30;99.90;;;;;;5038660;28;20493;-70
2021/12/23 09:10:03;;;;;;;46.23;15.67;;;3.30;99.90;;;;;;5037809;28;20218;-70
2021/12/23 09:12:30;;;;;;;45.77;14.87;;;3.40;99.90;;;;;;5038631;28;20221;-70
2021/12/23 09:14:57;;;;;;;52.57;18.10;;;3.50;99.90;;;;;;5035552;28;20201;-70
2021/12/23 09:17:24;;;;;;;47.90;16.43;;;3.50;99.90;;;;;;5034279;28;20241;-70
2021/12/23 09:19:50;;;;;;;51.80;16.37;;;3.60;99.90;;;;;;5018671;28;20214;-70
2021/12/23 09:22:17;;;;;;;47.43;16.50;;;3.70;99.90;;;;;;5042446;28;20697;-71
2021/12/23 09:24:47;;;;;;;48.17;15.97;;;3.80;99.90;;;;;;5029367;28;20228;-69
2021/12/23 09:27:25;;;;;;;48.53;15.03;;;3.80;99.90;;;;;;5034685;28;20371;-69
2021/12/23 09:32:51;;;;;;;45.20;16.27;;;4.00;99.90;;;;;;5037218;28;20201;-69
2021/12/23 09:35:20;;;;;;;47.67;16.43;;;4.10;99.90;;;;;;5020787;28;20202;-69
2021/12/23 09:37:47;;;;;;;46.60;16.23;;;4.20;99.90;;;;;;5022362;28;20228;-69
2021/12/23 09:40:16;;;;;;;47.80;15.67;;;4.30;99.90;;;;;;5025015;28;20233;-70
2021/12/23 09:42:45;;;;;;;51.60;16.67;;;4.30;99.90;;;;;;5038098;28;20690;-69
2021/12/23 09:45:16;;;;;;;57.97;17.73;;;4.40;99.90;;;;;;5033275;28;20225;-69
2021/12/23 09:47:44;;;;;;;43.13;14.77;;;4.50;99.90;;;;;;5031923;28;20233;-69
2021/12/23 09:50:13;;;;;;;48.43;15.67;;;4.50;99.90;;;;;;5035954;28;20225;-69
2021/12/23 09:52:43;;;;;;;48.40;16.47;;;4.50;99.90;;;;;;5033543;28;20212;-71
2021/12/23 09:55:12;;;;;;;48.90;14.00;;;4.50;99.90;;;;;;5038101;28;20201;-71
2021/12/23 09:57:41;;;;;;;46.10;16.07;;;4.50;99.90;;;;;;5030033;28;20238;-71
2021/12/23 10:00:11;;;;;;;49.83;16.07;;;4.60;99.90;;;;;;5037548;28;20695;-71
2021/12/23 10:02:40;;;;;;;42.77;14.17;;;4.60;99.90;;;;;;5013387;28;20198;-70
2021/12/23 10:05:10;;;;;;;52.20;17.57;;;4.70;99.90;;;;;;5030030;28;20398;-71
2021/12/23 10:07:38;;;;;;;39.33;13.90;;;4.80;99.90;;;;;;5038282;28;20873;-73
2021/12/23 10:10:14;;;;;;;44.07;16.40;;;4.90;99.90;;;;;;5016349;28;20225;-71
2021/12/23 10:13:11;;;;;;;47.37;16.17;;;5.00;99.90;;;;;;5014676;28;20303;-72
2021/12/23 10:38:32;;;;;;;45.97;15.80;;;5.70;99.90;;;;;;5024764;28;20245;-71
2021/12/23 10:41:03;;;;;;;48.57;16.53;;;5.70;99.90;;;;;;5031474;28;20209;-71
2021/12/23 10:43:33;;;;;;;48.67;15.97;;;5.70;99.90;;;;;;5032948;28;20213;-71
2021/12/23 10:46:04;;;;;;;40.00;12.37;;;5.80;99.90;;;;;;5028708;28;20214;-71
2021/12/23 10:48:34;;;;;;;48.63;13.00;;;5.90;99.90;;;;;;5032966;28;20249;-71
2021/12/23 10:51:06;;;;;;;50.30;16.60;;;5.90;99.90;;;;;;5032488;28;20224;-70
2021/12/23 10:53:46;;;;;;;40.00;12.50;;;5.90;99.90;;;;;;5031647;28;20215;-69
2021/12/23 10:59:10;;;;;;;48.67;16.70;;;5.90;99.90;;;;;;5009963;28;20209;-69
2021/12/23 11:02:11;;;;;;;51.47;17.03;;;5.80;99.90;;;;;;5016851;28;20221;-71
2021/12/23 11:05:04;;;;;;;33.73;10.73;;;5.90;99.90;;;;;;5001234;28;20637;-70
2021/12/23 11:07:49;;;;;;;39.30;12.90;;;5.90;99.90;;;;;;5022230;28;20232;-70
2021/12/23 11:10:23;;;;;;;45.27;15.13;;;6.00;99.90;;;;;;5023548;28;20214;-71
2021/12/23 11:38:21;;;;;;;35.07;11.77;;;5.80;99.90;;;;;;5040585;28;20233;-69
2021/12/23 11:40:58;;;;;;;47.43;15.30;;;5.90;99.90;;;;;;5041565;28;20270;-69
2021/12/23 11:43:46;;;;;;;46.70;15.50;;;6.00;99.90;;;;;;5006084;28;20656;-69
2021/12/23 11:46:15;;;;;;;39.87;12.83;;;6.00;99.90;;;;;;5036634;28;20209;-70
2021/12/23 11:48:45;;;;;;;41.80;14.93;;;6.10;99.90;;;;;;5036783;28;20232;-70
2021/12/23 11:51:20;;;;;;;34.93;14.10;;;6.10;99.90;;;;;;5039416;28;20313;-70
2021/12/23 11:53:49;;;;;;;45.77;15.43;;;6.20;99.90;;;;;;5037058;28;20213;-71
2021/12/23 11:56:18;;;;;;;47.60;16.03;;;6.20;99.90;;;;;;5032410;28;20279;-71
2021/12/23 11:58:47;;;;;;;42.30;14.60;;;6.30;99.90;;;;;;5044656;28;20226;-71
2021/12/23 12:01:20;;;;;;;43.73;14.83;;;6.30;99.90;;;;;;5034776;28;20239;-71
2021/12/23 12:03:59;;;;;;;48.00;16.57;;;6.30;99.90;;;;;;5007671;28;20220;-71
2021/12/23 12:06:30;;;;;;;40.03;11.63;;;6.40;99.90;;;;;;5027219;28;20210;-70
2021/12/23 12:09:11;;;;;;;51.57;17.47;;;6.40;99.90;;;;;;5032886;28;20210;-70
2021/12/23 12:11:39;;;;;;;43.27;14.50;;;6.40;99.90;;;;;;5025635;28;20224;-71
2021/12/23 12:14:26;;;;;;;37.17;12.63;;;6.40;99.90;;;;;;5038239;28;20920;-69
2021/12/23 12:16:53;;;;;;;43.53;14.57;;;8.80;99.90;;;;;;5036485;28;20705;-71
2021/12/23 12:19:52;;;;;;;45.70;16.10;;;6.40;99.90;;;;;;5040899;28;20545;-70
2021/12/23 12:22:48;;;;;;;40.60;14.93;;;6.50;99.90;;;;;;5026866;28;20210;-73
2021/12/23 12:25:58;;;;;;;48.43;16.23;;;6.50;99.90;;;;;;5034205;28;20729;-72
2021/12/23 12:28:32;;;;;;;41.77;13.93;;;6.50;99.90;;;;;;5031890;28;20286;-72
2021/12/23 12:31:01;;;;;;;47.70;16.17;;;6.50;99.90;;;;;;5021328;28;20218;-71
2021/12/23 12:33:49;;;;;;;42.57;15.00;;;6.50;99.90;;;;;;5034680;28;20335;-70
2021/12/23 12:36:17;;;;;;;39.53;11.90;;;6.50;99.90;;;;;;5023452;28;20984;-70
2021/12/23 12:38:48;;;;;;;39.30;13.03;;;6.50;99.90;;;;;;5030419;28;20230;-71
2021/12/23 12:41:18;;;;;;;48.10;14.97;;;6.50;99.90;;;;;;5021012;28;20296;-70
2021/12/23 12:44:07;;;;;;;46.00;14.10;;;6.50;99.90;;;;;;5029736;28;20213;-71
2021/12/23 12:47:11;;;;;;;44.07;15.30;;;6.50;99.90;;;;;;5013704;28;20205;-70
2021/12/23 12:49:40;;;;;;;40.27;14.93;;;6.50;99.90;;;;;;5030839;28;20232;-70
2021/12/23 12:52:16;;;;;;;43.37;15.27;;;6.50;99.90;;;;;;5043486;28;20216;-69
2021/12/23 12:54:49;;;;;;;42.27;13.53;;;6.50;99.90;;;;;;5037311;28;20209;-70
2021/12/23 12:57:18;;;;;;;39.83;14.37;;;6.50;99.90;;;;;;5031169;28;20234;-70
2021/12/23 12:59:48;;;;;;;36.10;13.60;;;6.50;99.90;;;;;;5022571;28;20206;-70
2021/12/23 13:02:31;;;;;;;48.90;15.60;;;6.50;99.90;;;;;;5025808;28;20621;-70
2021/12/23 13:05:00;;;;;;;42.30;14.03;;;6.50;99.90;;;;;;5024215;28;20223;-70
2021/12/23 13:07:50;;;;;;;41.20;12.37;;;6.50;99.90;;;;;;5025976;28;20252;-70
2021/12/23 13:10:46;;;;;;;43.83;15.13;;;6.60;99.90;;;;;;5013666;28;20220;-70
2021/12/23 13:13:26;;;;;;;44.47;14.43;;;6.60;99.90;;;;;;5026845;28;20761;-70
2021/12/23 13:16:15;;;;;;;34.47;11.03;;;6.70;99.90;;;;;;5026356;28;20734;-70
2021/12/23 13:18:42;;;;;;;44.27;15.20;;;6.70;99.90;;;;;;5023044;28;20234;-69
2021/12/23 13:21:09;;;;;;;43.33;14.30;;;6.80;99.90;;;;;;5026754;28;20222;-70
2021/12/23 13:23:40;;;;;;;44.43;14.33;;;6.80;99.90;;;;;;5028081;28;20561;-70
2021/12/23 13:26:11;;;;;;;46.53;15.40;;;6.70;99.90;;;;;;5035395;28;20226;-69
2021/12/23 13:28:43;;;;;;;39.73;13.03;;;6.70;99.90;;;;;;5017935;28;20230;-69
2021/12/23 13:31:15;;;;;;;34.77;12.90;;;6.70;99.90;;;;;;5024921;28;20750;-70
2021/12/23 13:33:47;;;;;;;40.57;15.00;;;6.70;99.90;;;;;;5019125;28;20221;-70
2021/12/23 13:36:16;;;;;;;49.77;16.00;;;6.70;99.90;;;;;;5021809;28;20206;-68
2021/12/23 13:38:44;;;;;;;48.47;15.87;;;6.70;99.90;;;;;;5015557;28;20239;-70
2021/12/23 13:41:21;;;;;;;49.70;16.10;;;6.70;99.90;;;;;;5029667;28;20207;-69
2021/12/23 13:43:48;;;;;;;47.30;14.57;;;6.70;99.90;;;;;;5033768;28;20209;-70
2021/12/23 13:46:15;;;;;;;40.30;15.23;;;6.80;99.90;;;;;;5026170;28;20237;-70
2021/12/23 13:48:50;;;;;;;42.90;15.00;;;6.70;99.90;;;;;;5023490;28;20597;-70